Ansley, Mississippi
Current Conditions -  °F | °C
As of 11:35 PM on Sunday 21 Dec 2014 (Local Time) from KASD Reporting Station
Haze Haze  
Wind Chill: 13°   Ceiling: 400
Heat Index: 13°   Visibility: 5mi
Dew Point: 12°   Wind: 3mph
Humidity: 93%   Direction: 60°ENE
Pressure: 29.94"   Gusts: NA
Location:  30.2253°N, 89.4838°W
Report Text: KASD 220535Z AUTO 06003KT 5SM BR OVC004 13/12 A2994 RMK AO2 T01280117
Loading
Personal Weather Stations






























Interactive Weather Map New forecast layout! Learn more

10-Day Weather Forecast

Advertisements
Track Severe Weather on mobile